Time;durP1;ratioP1;P1;durP2;ratioP2;P2;SDS_P1;SDS_P2;PMS_P1;PMS_P2;Temp;Humidity;BMP_temperature;BMP_pressure;BME280_temperature;BME280_humidity;BME280_pressure;Samples;Min_cycle;Max_cycle;Signal;HPM_P1;HPM_P2
2023/10/08 00:01:42;;;;;;;7.07;3.50;;;;;;;-143.29;100.00;62188.47;5071820;28;20024;-89
2023/10/08 00:04:08;;;;;;;8.88;3.85;;;;;;;-143.29;100.00;62188.47;5071572;28;20032;-89
2023/10/08 00:06:33;;;;;;;6.85;3.03;;;;;;;-143.29;100.00;62188.47;5071571;28;20021;-89
2023/10/08 00:09:07;;;;;;;7.93;3.40;;;;;;;-143.29;100.00;62188.47;5071672;28;20029;-89
2023/10/08 00:11:36;;;;;;;4.70;3.08;;;;;;;-143.29;100.00;62188.47;5071559;28;20100;-90
2023/10/08 00:14:01;;;;;;;7.22;3.33;;;;;;;-143.29;100.00;62188.47;5036396;28;20041;-89
2023/10/08 00:16:28;;;;;;;6.50;3.50;;;;;;;-143.29;100.00;62188.47;5059595;28;20036;-89
2023/10/08 00:18:58;;;;;;;8.80;3.42;;;;;;;-143.29;100.00;62188.47;5075138;28;20028;-89
2023/10/08 00:21:27;;;;;;;7.15;3.80;;;;;;;-143.29;100.00;62188.47;5075474;28;20020;-89
2023/10/08 00:23:52;;;;;;;6.22;3.10;;;;;;;-143.29;100.00;62188.47;5075293;28;20020;-89
2023/10/08 00:26:27;;;;;;;9.65;3.90;;;;;;;-143.29;100.00;62188.47;5075434;28;20103;-89
2023/10/08 00:28:55;;;;;;;9.35;3.35;;;;;;;-143.29;100.00;62188.47;5057414;28;20032;-89
2023/10/08 00:31:24;;;;;;;6.63;3.33;;;;;;;-143.29;100.00;62188.47;5055284;28;20382;-89
2023/10/08 00:33:49;;;;;;;6.85;2.97;;;;;;;-143.29;100.00;62188.47;5055117;28;20029;-89
2023/10/08 00:36:18;;;;;;;7.70;3.58;;;;;;;-143.29;100.00;62188.47;5037194;28;20385;-89
2023/10/08 00:38:44;;;;;;;5.78;2.90;;;;;;;-143.29;100.00;62188.47;5055077;28;20037;-89
2023/10/08 00:41:16;;;;;;;7.72;3.38;;;;;;;-143.29;100.00;62188.47;5037283;28;20108;-89
2023/10/08 00:43:44;;;;;;;;;;;;;;;-143.29;100.00;62188.47;5069693;28;20040;-89
2023/10/08 00:54:46;;;;;;;10.48;3.88;;;;;;;-143.29;100.00;62188.47;5074843;28;20194;-89
2023/10/08 00:57:20;;;;;;;9.55;4.40;;;;;;;-143.29;100.00;62188.47;5072074;28;20493;-89
2023/10/08 00:59:52;;;;;;;10.90;5.70;;;;;;;-143.29;100.00;62188.47;5074677;28;20059;-89
2023/10/08 01:02:21;;;;;;;6.43;3.42;;;;;;;-143.29;100.00;62188.47;5074221;28;20112;-88
2023/10/08 01:04:46;;;;;;;8.35;3.60;;;;;;;-143.29;100.00;62188.47;5054814;28;20506;-89
2023/10/08 01:07:18;;;;;;;11.35;4.75;;;;;;;-143.29;100.00;62188.47;5054517;28;20037;-89
2023/10/08 01:09:49;;;;;;;5.97;3.22;;;;;;;-143.29;100.00;62188.47;5054591;28;20017;-89
2023/10/08 01:14:55;;;;;;;11.82;3.92;;;;;;;-143.29;100.00;62188.47;5070586;28;20498;-89
2023/10/08 01:17:26;;;;;;;5.78;3.33;;;;;;;-143.29;100.00;62188.47;5068662;28;20504;-89
2023/10/08 01:22:33;;;;;;;7.72;3.60;;;;;;;-143.29;100.00;62188.47;5054295;28;20059;-89
2023/10/08 01:25:01;;;;;;;8.32;3.65;;;;;;;-143.29;100.00;62188.47;5051605;28;20072;-90
2023/10/08 01:27:34;;;;;;;8.00;3.33;;;;;;;-143.29;100.00;62188.47;5052638;28;20013;-89
2023/10/08 01:30:12;;;;;;;12.95;4.22;;;;;;;-143.29;100.00;62188.47;5053952;28;20028;-89
2023/10/08 01:32:37;;;;;;;8.20;2.95;;;;;;;-143.29;100.00;62188.47;5053239;28;20021;-89
2023/10/08 01:35:05;;;;;;;8.68;3.17;;;;;;;-143.29;100.00;62188.47;5036102;28;20025;-89
2023/10/08 01:37:33;;;;;;;6.03;3.90;;;;;;;-143.29;100.00;62188.47;5053764;28;20364;-89
2023/10/08 01:40:01;;;;;;;9.57;3.47;;;;;;;-143.29;100.00;62188.47;5053979;28;20021;-89
2023/10/08 01:42:28;;;;;;;8.93;4.45;;;;;;;-143.29;100.00;62188.47;5053942;28;20025;-90
2023/10/08 01:44:55;;;;;;;9.43;3.80;;;;;;;-143.29;100.00;62188.47;5065136;28;20402;-89
2023/10/08 01:47:25;;;;;;;8.90;4.43;;;;;;;-143.29;100.00;62188.47;5055832;28;20031;-89
2023/10/08 01:49:53;;;;;;;8.02;3.50;;;;;;;-143.29;100.00;62188.47;5073703;28;20028;-89
2023/10/08 01:52:21;;;;;;;9.35;4.18;;;;;;;-143.29;100.00;62188.47;5073631;28;20025;-90
2023/10/08 01:54:48;;;;;;;9.20;4.03;;;;;;;-143.29;100.00;62188.47;5073769;28;20394;-89
2023/10/08 01:57:14;;;;;;;12.23;4.60;;;;;;;-143.29;100.00;62188.47;5073896;28;20087;-89
2023/10/08 01:59:40;;;;;;;13.02;4.20;;;;;;;-143.29;100.00;62188.47;5071402;28;20115;-89
2023/10/08 02:02:06;;;;;;;13.10;4.80;;;;;;;-143.29;100.00;62188.47;5073407;28;20027;-89
2023/10/08 02:04:35;;;;;;;10.48;4.78;;;;;;;-143.29;100.00;62188.47;5073270;28;20086;-89
2023/10/08 02:07:01;;;;;;;9.95;5.20;;;;;;;-143.29;100.00;62188.47;5073521;28;20031;-89
2023/10/08 02:09:26;;;;;;;4.70;3.38;;;;;;;-143.29;100.00;62188.47;5073452;28;20108;-89
2023/10/08 02:11:53;;;;;;;8.35;4.43;;;;;;;-143.29;100.00;62188.47;5073318;28;20051;-89
2023/10/08 02:14:20;;;;;;;7.68;3.88;;;;;;;-143.29;100.00;62188.47;5070535;28;20031;-89
2023/10/08 02:16:46;;;;;;;10.88;4.25;;;;;;;-143.29;100.00;62188.47;5073257;28;20047;-89
2023/10/08 02:19:12;;;;;;;7.13;3.55;;;;;;;-143.29;100.00;62188.47;5073181;28;20047;-88
2023/10/08 02:21:41;;;;;;;6.35;3.88;;;;;;;-143.29;100.00;62188.47;5073354;28;20016;-89
2023/10/08 02:24:08;;;;;;;6.53;3.78;;;;;;;-143.29;100.00;62188.47;5073058;28;20024;-89
2023/10/08 02:26:34;;;;;;;6.35;3.47;;;;;;;-143.29;100.00;62188.47;5073143;28;20081;-89
2023/10/08 02:29:10;;;;;;;7.95;3.55;;;;;;;-143.29;100.00;62188.47;5070120;28;20056;-89
2023/10/08 02:31:37;;;;;;;6.32;3.15;;;;;;;-143.29;100.00;62188.47;5052983;28;20021;-89
2023/10/08 02:34:03;;;;;;;8.02;3.80;;;;;;;-143.29;100.00;62188.47;5052865;28;20048;-89
2023/10/08 02:36:28;;;;;;;5.70;2.90;;;;;;;-143.29;100.00;62188.47;5052471;28;20021;-89
2023/10/08 02:38:54;;;;;;;8.50;3.10;;;;;;;-143.29;100.00;62188.47;5052854;28;20033;-89
2023/10/08 02:41:21;;;;;;;9.98;3.78;;;;;;;-143.29;100.00;62188.47;5052666;28;20025;-89
2023/10/08 02:43:48;;;;;;;5.93;3.05;;;;;;;-143.29;100.00;62188.47;5034295;28;20306;-89
2023/10/08 02:46:15;;;;;;;4.78;2.60;;;;;;;-143.29;100.00;62188.47;5051896;28;20029;-89
2023/10/08 02:48:41;;;;;;;8.88;3.05;;;;;;;-143.29;100.00;62188.47;5052635;28;20071;-89
2023/10/08 02:51:15;;;;;;;7.78;3.03;;;;;;;-143.29;100.00;62188.47;5052486;28;20025;-89
2023/10/08 02:53:45;;;;;;;8.80;3.13;;;;;;;-143.29;100.00;62188.47;5052408;28;20059;-90
2023/10/08 02:56:13;;;;;;;8.35;3.42;;;;;;;-143.29;100.00;62188.47;5052570;28;20413;-89
2023/10/08 02:58:43;;;;;;;10.27;3.55;;;;;;;-143.29;100.00;62188.47;5052097;28;20029;-90
2023/10/08 03:01:12;;;;;;;6.93;3.50;;;;;;;-143.29;100.00;62188.47;5054247;28;20070;-89
2023/10/08 03:03:39;;;;;;;8.20;2.72;;;;;;;-143.29;100.00;62188.47;5070094;28;20047;-88
2023/10/08 03:06:11;;;;;;;6.68;2.80;;;;;;;-143.29;100.00;62188.47;5072189;28;20028;-89
2023/10/08 03:08:37;;;;;;;9.25;3.53;;;;;;;-143.29;100.00;62188.47;5072351;28;20078;-89
2023/10/08 03:11:06;;;;;;;6.07;2.65;;;;;;;-143.29;100.00;62188.47;5072383;28;20024;-89
2023/10/08 03:13:32;;;;;;;7.22;3.72;;;;;;;-143.29;100.00;62188.47;5072196;28;20458;-90
2023/10/08 03:16:21;;;;;;;10.05;3.63;;;;;;;-143.29;100.00;62188.47;5056797;28;20119;-89
2023/10/08 03:18:45;;;;;;;13.88;3.00;;;;;;;-143.29;100.00;62188.47;5046739;28;20143;-90
2023/10/08 03:21:20;;;;;;;6.53;2.90;;;;;;;-143.29;100.00;62188.47;5052147;28;20036;-89
2023/10/08 03:23:50;;;;;;;10.15;3.03;;;;;;;-143.29;100.00;62188.47;5051980;28;20025;-89
2023/10/08 03:29:00;;;;;;;7.25;2.83;;;;;;;-143.29;100.00;62188.47;5052256;28;20033;-89
2023/10/08 03:34:12;;;;;;;6.53;2.95;;;;;;;-143.29;100.00;62188.47;5066232;28;20414;-89
2023/10/08 03:36:44;;;;;;;5.50;2.63;;;;;;;-143.29;100.00;62188.47;5053850;28;20025;-89
2023/10/08 03:39:13;;;;;;;11.85;3.20;;;;;;;-143.29;100.00;62188.47;5071914;28;20501;-89
2023/10/08 03:41:42;;;;;;;7.93;2.97;;;;;;;-143.29;100.00;62188.47;5071922;28;20029;-89
2023/10/08 03:44:16;;;;;;;9.50;3.20;;;;;;;-143.29;100.00;62188.47;5053723;28;20020;-88
2023/10/08 03:46:46;;;;;;;4.50;2.42;;;;;;;-143.29;100.00;62188.47;5067983;28;20397;-89
2023/10/08 03:49:25;;;;;;;6.63;2.65;;;;;;;-143.29;100.00;62188.47;5050870;28;20132;-89
2023/10/08 03:51:57;;;;;;;6.90;2.80;;;;;;;-143.29;100.00;62188.47;5051984;28;20032;-89
2023/10/08 03:54:35;;;;;;;14.85;3.35;;;;;;;-143.29;100.00;62188.47;5051905;28;20032;-89
2023/10/08 03:57:01;;;;;;;7.25;3.58;;;;;;;-143.29;100.00;62188.47;5051557;28;20021;-89
2023/10/08 03:59:34;;;;;;;5.03;2.85;;;;;;;-143.29;100.00;62188.47;5051558;28;20033;-89
2023/10/08 04:02:14;;;;;;;7.60;3.85;;;;;;;-143.29;100.00;62188.47;5050999;28;20087;-90
2023/10/08 04:04:57;;;;;;;13.80;3.50;;;;;;;-143.29;100.00;62188.47;5051726;28;20399;-88
2023/10/08 04:10:38;;;;;;;8.00;2.88;;;;;;;-143.29;100.00;62188.47;5051544;28;20032;-89
2023/10/08 04:12:52;;;;;;;9.93;3.63;;;;;;;-143.29;100.00;62188.47;5051323;28;20111;-89
2023/10/08 04:15:18;;;;;;;7.07;2.80;;;;;;;-143.29;100.00;62188.47;5051550;28;20100;-89
2023/10/08 04:17:44;;;;;;;8.70;3.03;;;;;;;-143.29;100.00;62188.47;5050847;28;20577;-89
2023/10/08 04:23:01;;;;;;;7.15;2.50;;;;;;;-143.29;100.00;62188.47;5051495;28;20063;-90
2023/10/08 04:25:27;;;;;;;9.32;3.00;;;;;;;-143.29;100.00;62188.47;5051454;28;20053;-89
2023/10/08 04:27:58;;;;;;;6.30;2.70;;;;;;;-143.29;100.00;62188.47;5051530;28;20056;-89
2023/10/08 04:30:32;;;;;;;11.20;2.90;;;;;;;-143.29;100.00;62188.47;5051460;28;20542;-89
2023/10/08 04:32:59;;;;;;;5.55;2.95;;;;;;;-143.29;100.00;62188.47;5054006;28;20059;-89
2023/10/08 04:35:26;;;;;;;9.10;3.15;;;;;;;-143.29;100.00;62188.47;5071631;28;20029;-89
2023/10/08 04:37:53;;;;;;;7.25;2.63;;;;;;;-143.29;100.00;62188.47;5071231;28;20024;-89
2023/10/08 04:40:22;;;;;;;7.57;2.90;;;;;;;-143.29;100.00;62188.47;5071443;28;20509;-89
2023/10/08 04:42:48;;;;;;;7.32;3.08;;;;;;;-143.29;100.00;62188.47;5070946;28;20498;-89
2023/10/08 04:45:13;;;;;;;3.80;2.40;;;;;;;-143.29;100.00;62188.47;5071260;28;20063;-89
2023/10/08 04:47:44;;;;;;;7.72;2.80;;;;;;;-143.29;100.00;62188.47;5068507;28;20052;-88
2023/10/08 04:50:15;;;;;;;8.00;3.05;;;;;;;-143.29;100.00;62188.47;5071184;28;20021;-89
2023/10/08 04:52:45;;;;;;;7.70;2.30;;;;;;;-143.29;100.00;62188.47;5071133;28;20020;-89
2023/10/08 04:55:20;;;;;;;7.72;2.88;;;;;;;-143.29;100.00;62188.47;5071221;28;20378;-89
2023/10/08 04:57:45;;;;;;;6.65;2.40;;;;;;;-143.29;100.00;62188.47;5070992;28;20085;-89
2023/10/08 05:00:15;;;;;;;3.15;1.92;;;;;;;-143.29;100.00;62188.47;5073694;28;20470;-89
2023/10/08 05:02:50;;;;;;;6.65;2.50;;;;;;;-143.29;100.00;62188.47;5072947;28;20222;-89
2023/10/08 05:10:32;;;;;;;6.72;2.53;;;;;;;-143.29;100.00;62188.47;5054640;28;20371;-89
2023/10/08 05:15:41;;;;;;;7.75;3.00;;;;;;;-143.29;100.00;62188.47;5054814;28;20043;-88
2023/10/08 05:31:46;;;;;;;7.60;3.13;;;;;;;-143.29;100.00;62188.47;5074202;28;20106;-89
2023/10/08 05:34:32;;;;;;;6.82;2.72;;;;;;;-143.29;100.00;62188.47;5053698;28;20555;-89
2023/10/08 05:39:40;;;;;;;4.80;2.70;;;;;;;-143.29;100.00;62188.47;5074421;28;20021;-88
2023/10/08 05:42:31;;;;;;;9.60;3.30;;;;;;;-143.29;100.00;62188.47;5073982;28;20060;-88
2023/10/08 05:57:52;;;;;;;7.57;3.60;;;;;;;-143.29;100.00;62188.47;5073617;28;20409;-88
2023/10/08 06:00:45;;;;;;;4.80;3.17;;;;;;;-143.29;100.00;62188.47;5073689;28;20039;-88
2023/10/08 06:03:31;;;;;;;5.13;2.88;;;;;;;-143.29;100.00;62188.47;5070541;28;20066;-89
2023/10/08 06:06:07;;;;;;;5.60;3.20;;;;;;;-143.29;100.00;62188.47;5072081;28;20028;-89
2023/10/08 06:08:49;;;;;;;7.53;2.67;;;;;;;-143.29;100.00;62188.47;5073465;28;20028;-89
2023/10/08 06:11:27;;;;;;;7.72;2.47;;;;;;;-143.29;100.00;62188.47;5072686;28;20021;-89
2023/10/08 06:13:59;;;;;;;5.88;2.70;;;;;;;-143.29;100.00;62188.47;5073099;28;20039;-88
2023/10/08 06:16:41;;;;;;;8.88;3.05;;;;;;;-143.29;100.00;62188.47;5073282;28;20375;-89
2023/10/08 06:19:08;;;;;;;5.47;2.95;;;;;;;-143.29;100.00;62188.47;5052907;28;20036;-88
2023/10/08 06:21:33;;;;;;;7.05;2.85;;;;;;;-143.29;100.00;62188.47;5043258;28;20510;-88
2023/10/08 06:23:59;;;;;;;5.93;2.95;;;;;;;-143.29;100.00;62188.47;5053317;28;20111;-88
2023/10/08 06:26:25;;;;;;;11.05;2.90;;;;;;;-143.29;100.00;62188.47;5053103;28;20024;-88
2023/10/08 06:28:57;;;;;;;8.73;2.65;;;;;;;-143.29;100.00;62188.47;5053021;28;20052;-89
2023/10/08 06:31:24;;;;;;;6.97;2.80;;;;;;;-143.29;100.00;62188.47;5052787;28;20056;-88
2023/10/08 06:33:50;;;;;;;6.15;3.03;;;;;;;-143.29;100.00;62188.47;5052728;28;20106;-89
2023/10/08 06:36:15;;;;;;;6.63;2.45;;;;;;;-143.29;100.00;62188.47;5060249;28;20062;-89
2023/10/08 06:38:48;;;;;;;4.75;2.45;;;;;;;-143.29;100.00;62188.47;5072887;28;20029;-88
2023/10/08 06:44:02;;;;;;;7.43;2.22;;;;;;;-143.29;100.00;62188.47;5072616;28;20028;-88
2023/10/08 06:46:29;;;;;;;7.13;2.95;;;;;;;-143.29;100.00;62188.47;5072710;28;20027;-88
2023/10/08 06:48:54;;;;;;;4.35;2.10;;;;;;;-143.29;100.00;62188.47;5072575;28;20158;-89
2023/10/08 06:51:19;;;;;;;7.20;2.70;;;;;;;-143.29;100.00;62188.47;5070293;28;20126;-88
2023/10/08 06:53:46;;;;;;;4.85;2.50;;;;;;;-143.29;100.00;62188.47;5072353;28;20025;-88
2023/10/08 06:56:12;;;;;;;8.52;2.70;;;;;;;-143.29;100.00;62188.47;5071085;28;20030;-89
2023/10/08 06:58:40;;;;;;;7.53;2.85;;;;;;;-143.29;100.00;62188.47;5061619;28;20125;-90
2023/10/08 07:01:08;;;;;;;6.20;3.10;;;;;;;-143.29;100.00;62188.47;5051417;28;20021;-91
2023/10/08 07:03:35;;;;;;;5.70;2.60;;;;;;;-143.29;100.00;62188.47;5033088;28;20510;-90
2023/10/08 07:06:02;;;;;;;8.10;2.85;;;;;;;-143.29;100.00;62188.47;5052197;28;20107;-89
2023/10/08 07:08:31;;;;;;;5.63;2.38;;;;;;;-143.29;100.00;62188.47;5052243;28;20033;-89
2023/10/08 07:10:59;;;;;;;4.10;2.35;;;;;;;-143.29;100.00;62188.47;5051287;28;20392;-88
2023/10/08 07:13:26;;;;;;;11.80;2.67;;;;;;;-143.29;100.00;62188.47;5042887;28;20039;-93
2023/10/08 07:15:52;;;;;;;9.75;3.22;;;;;;;-143.29;100.00;62188.47;5070084;28;20029;-92
2023/10/08 07:18:27;;;;;;;7.50;3.58;;;;;;;-143.29;100.00;62188.47;5071966;28;20035;-90
2023/10/08 07:20:55;;;;;;;22.60;7.28;;;;;;;-143.29;100.00;62188.47;5057615;28;20430;-90
2023/10/08 07:23:25;;;;;;;35.72;12.25;;;;;;;-143.29;100.00;62188.47;5050727;28;20021;-89
2023/10/08 07:26:11;;;;;;;40.58;14.25;;;;;;;-143.29;100.00;62188.47;5049617;28;20505;-89
2023/10/08 07:28:40;;;;;;;38.22;13.75;;;;;;;-143.29;100.00;62188.47;5047538;28;20107;-90
2023/10/08 07:31:15;;;;;;;38.90;12.73;;;;;;;-143.29;100.00;62188.47;5047389;28;20033;-90
2023/10/08 07:33:44;;;;;;;31.00;10.82;;;;;;;-143.29;100.00;62188.47;5047761;28;20028;-89
2023/10/08 07:36:14;;;;;;;17.50;8.02;;;;;;;-143.29;100.00;62188.47;5051830;28;20021;-90
2023/10/08 07:38:42;;;;;;;13.65;5.38;;;;;;;-143.29;100.00;62188.47;5033754;28;20029;-91
2023/10/08 07:41:19;;;;;;;16.10;5.40;;;;;;;-143.29;100.00;62188.47;5051139;28;20036;-91
2023/10/08 07:44:04;;;;;;;17.38;6.28;;;;;;;-143.29;100.00;62188.47;5033900;28;20060;-91
2023/10/08 07:46:30;;;;;;;19.63;6.20;;;;;;;-143.29;100.00;62188.47;5032180;28;20391;-91
2023/10/08 07:48:57;;;;;;;34.75;8.32;;;;;;;-143.29;100.00;62188.47;5049585;28;20025;-91
2023/10/08 07:51:23;;;;;;;30.50;11.88;;;;;;;-143.29;100.00;62188.47;5029458;28;20052;-92
2023/10/08 07:53:54;;;;;;;44.92;13.25;;;;;;;-143.29;100.00;62188.47;5033785;28;20040;-93
2023/10/08 07:56:19;;;;;;;17.17;6.15;;;;;;;-143.29;100.00;62188.47;5051958;28;20164;-91
2023/10/08 07:58:44;;;;;;;12.05;4.38;;;;;;;-143.29;100.00;62188.47;5049477;28;20123;-93
2023/10/08 08:01:13;;;;;;;12.43;5.38;;;;;;;-143.29;100.00;62188.47;5041857;28;20501;-89
2023/10/08 08:03:39;;;;;;;16.90;5.18;;;;;;;-143.29;100.00;62188.47;5051760;28;20029;-91
2023/10/08 08:06:13;;;;;;;16.02;5.25;;;;;;;-143.29;100.00;62188.47;5055814;28;20037;-95
2023/10/08 08:08:39;;;;;;;10.65;5.00;;;;;;;-143.29;100.00;62188.47;5049815;28;20028;-91
2023/10/08 08:11:17;;;;;;;9.05;4.25;;;;;;;-143.29;100.00;62188.47;5049943;28;20036;-89
2023/10/08 08:13:44;;;;;;;17.27;6.63;;;;;;;-143.29;100.00;62188.47;5069891;28;20032;-92
2023/10/08 08:16:17;;;;;;;20.48;7.75;;;;;;;-143.29;100.00;62188.47;5060251;28;20059;-92
2023/10/08 08:18:48;;;;;;;17.83;6.35;;;;;;;-143.29;100.00;62188.47;5033083;28;20470;-88
2023/10/08 08:21:16;;;;;;;10.48;4.18;;;;;;;-143.29;100.00;62188.47;5033495;28;20036;-94
2023/10/08 08:23:49;;;;;;;9.43;3.60;;;;;;;-143.29;100.00;62188.47;5032454;28;20025;-90
2023/10/08 08:26:28;;;;;;;8.85;4.22;;;;;;;-143.29;100.00;62188.47;5050811;28;20060;-89
2023/10/08 08:29:01;;;;;;;9.95;3.72;;;;;;;-143.29;100.00;62188.47;5033123;28;20036;-89
2023/10/08 08:31:35;;;;;;;9.18;3.80;;;;;;;-143.29;100.00;62188.47;5032207;28;20112;-88
2023/10/08 08:34:19;;;;;;;7.28;3.45;;;;;;;-143.29;100.00;62188.47;5050821;28;20036;-88
2023/10/08 08:36:48;;;;;;;9.20;3.72;;;;;;;-143.29;100.00;62188.47;5036581;28;20454;-90
2023/10/08 08:39:28;;;;;;;10.55;3.78;;;;;;;-143.29;100.00;62188.47;5055905;28;20036;-89
2023/10/08 08:41:59;;;;;;;10.73;3.70;;;;;;;-143.29;100.00;62188.47;5035902;28;20107;-89
2023/10/08 08:44:29;;;;;;;7.85;3.67;;;;;;;-143.29;100.00;62188.47;5061399;28;20091;-89
2023/10/08 08:46:58;;;;;;;13.32;4.53;;;;;;;-143.29;100.00;62188.47;5057862;28;20029;-89
2023/10/08 08:49:25;;;;;;;16.10;5.78;;;;;;;-143.29;100.00;62188.47;5054859;28;20033;-88
2023/10/08 08:51:55;;;;;;;11.90;4.95;;;;;;;-143.29;100.00;62188.47;5054514;28;20532;-88
2023/10/08 08:54:21;;;;;;;15.18;5.03;;;;;;;-143.29;100.00;62188.47;5054084;28;20040;-90
2023/10/08 08:56:48;;;;;;;7.22;3.70;;;;;;;-143.29;100.00;62188.47;5053853;28;20405;-90
2023/10/08 08:59:17;;;;;;;7.07;3.60;;;;;;;-143.29;100.00;62188.47;5036522;28;20033;-93
2023/10/08 09:01:43;;;;;;;9.52;3.25;;;;;;;-143.29;100.00;62188.47;5067578;28;20020;-88
2023/10/08 09:04:09;;;;;;;6.85;3.53;;;;;;;-143.29;100.00;62188.47;5075023;28;20024;-90
2023/10/08 09:06:37;;;;;;;8.52;4.28;;;;;;;-143.29;100.00;62188.47;5054183;28;20029;-89
2023/10/08 09:09:21;;;;;;;7.97;4.10;;;;;;;-143.29;100.00;62188.47;5053823;28;20049;-90
2023/10/08 09:11:51;;;;;;;7.35;3.45;;;;;;;-143.29;100.00;62188.47;5053169;28;20025;-89
2023/10/08 09:14:29;;;;;;;7.65;3.17;;;;;;;-143.29;100.00;62188.47;5054371;28;20025;-89
2023/10/08 09:16:56;;;;;;;6.75;3.45;;;;;;;-143.29;100.00;62188.47;5051152;28;20656;-90
2023/10/08 09:19:24;;;;;;;6.88;3.58;;;;;;;-143.29;100.00;62188.47;5036311;28;20036;-90
2023/10/08 09:22:06;;;;;;;8.88;3.47;;;;;;;-143.29;100.00;62188.47;5036291;28;20036;-90
2023/10/08 09:24:33;;;;;;;8.40;3.65;;;;;;;-143.29;100.00;62188.47;5053605;28;20234;-90
2023/10/08 09:27:05;;;;;;;6.38;3.40;;;;;;;-143.29;100.00;62188.47;5052403;28;20428;-91
2023/10/08 09:29:31;;;;;;;8.23;4.10;;;;;;;-143.29;100.00;62188.47;5035990;28;20029;-91
2023/10/08 09:31:58;;;;;;;8.43;3.22;;;;;;;-143.29;100.00;62188.47;5055221;28;20029;-91
2023/10/08 09:34:29;;;;;;;10.63;3.20;;;;;;;-143.29;100.00;62188.47;5055278;28;20456;-90
2023/10/08 09:36:56;;;;;;;8.82;3.20;;;;;;;-143.29;100.00;62188.47;5052945;28;20021;-90
2023/10/08 09:39:28;;;;;;;5.53;2.95;;;;;;;-143.29;100.00;62188.47;5049781;28;20442;-90
2023/10/08 09:41:54;;;;;;;4.40;2.22;;;;;;;-143.29;100.00;62188.47;5053390;28;20052;-90
2023/10/08 09:44:24;;;;;;;6.65;3.08;;;;;;;-143.29;100.00;62188.47;5059652;28;20081;-90
2023/10/08 09:46:55;;;;;;;5.88;2.95;;;;;;;-143.29;100.00;62188.47;5072068;28;20024;-90
2023/10/08 09:49:32;;;;;;;7.35;3.00;;;;;;;-143.29;100.00;62188.47;5072732;28;20075;-90
2023/10/08 09:52:01;;;;;;;7.07;2.50;;;;;;;-143.29;100.00;62188.47;5073329;28;20025;-90
2023/10/08 09:54:37;;;;;;;9.60;3.70;;;;;;;-143.29;100.00;62188.47;5073836;28;20025;-89
2023/10/08 09:57:03;;;;;;;10.48;4.03;;;;;;;-143.29;100.00;62188.47;5073659;28;20486;-89
2023/10/08 09:59:29;;;;;;;6.60;2.88;;;;;;;-143.29;100.00;62188.47;5059541;28;20036;-90
2023/10/08 10:01:59;;;;;;;6.10;3.05;;;;;;;-143.29;100.00;62188.47;5053568;28;20028;-89
2023/10/08 10:04:28;;;;;;;12.80;4.55;;;;;;;-143.29;100.00;62188.47;5035620;28;20025;-90
2023/10/08 10:06:57;;;;;;;6.97;3.67;;;;;;;-143.29;100.00;62188.47;5053527;28;20025;-90
2023/10/08 10:09:25;;;;;;;7.38;3.28;;;;;;;-143.29;100.00;62188.47;5053546;28;20021;-90
2023/10/08 10:11:52;;;;;;;7.93;3.08;;;;;;;-143.29;100.00;62188.47;5053358;28;20475;-90
2023/10/08 10:14:22;;;;;;;9.80;2.88;;;;;;;-143.29;100.00;62188.47;5052125;28;20033;-90
2023/10/08 10:17:14;;;;;;;7.55;3.28;;;;;;;-143.29;100.00;62188.47;5052062;28;20021;-90
2023/10/08 10:19:45;;;;;;;6.95;2.90;;;;;;;-143.29;100.00;62188.47;5052102;28;20166;-90
2023/10/08 10:22:15;;;;;;;5.75;2.55;;;;;;;-143.29;100.00;62188.47;5053230;28;20098;-90
2023/10/08 10:24:41;;;;;;;5.65;2.70;;;;;;;-143.29;100.00;62188.47;5053051;28;20028;-90
2023/10/08 10:27:14;;;;;;;5.82;2.50;;;;;;;-143.29;100.00;62188.47;5053205;28;20025;-90
2023/10/08 10:29:43;;;;;;;7.03;2.33;;;;;;;-143.29;100.00;62188.47;5053138;28;20025;-90
2023/10/08 10:32:10;;;;;;;5.78;2.83;;;;;;;-143.29;100.00;62188.47;5053041;28;20021;-89
2023/10/08 10:34:39;;;;;;;6.07;2.47;;;;;;;-143.29;100.00;62188.47;5070152;28;20468;-90
2023/10/08 10:37:19;;;;;;;6.68;3.67;;;;;;;-143.29;100.00;62188.47;5072755;28;20038;-90
2023/10/08 10:40:00;;;;;;;8.02;2.67;;;;;;;-143.29;100.00;62188.47;5072994;28;20043;-90
2023/10/08 10:42:28;;;;;;;;;;;;;;;-143.29;100.00;62188.47;5073174;28;20042;-90
2023/10/08 10:44:55;;;;;;;5.95;2.42;;;;;;;-143.29;100.00;62188.47;5072802;28;20285;-90
2023/10/08 10:52:31;;;;;;;8.80;2.92;;;;;;;-143.29;100.00;62188.47;5053083;28;20483;-89
2023/10/08 10:55:00;;;;;;;5.45;2.38;;;;;;;-143.29;100.00;62188.47;5052618;28;20075;-90
2023/10/08 10:57:34;;;;;;;8.00;2.00;;;;;;;-143.29;100.00;62188.47;5052681;28;20025;-90
2023/10/08 11:00:18;;;;;;;4.38;1.73;;;;;;;-143.29;100.00;62188.47;5052370;28;20136;-90
2023/10/08 11:02:48;;;;;;;2.95;1.73;;;;;;;-143.29;100.00;62188.47;5051589;28;20033;-90
2023/10/08 11:05:19;;;;;;;6.43;1.85;;;;;;;-143.29;100.00;62188.47;5052538;28;20357;-89
2023/10/08 11:07:48;;;;;;;4.90;1.30;;;;;;;-143.29;100.00;62188.47;5052511;28;20056;-90
2023/10/08 11:10:15;;;;;;;8.40;1.92;;;;;;;-143.29;100.00;62188.47;5034569;28;20071;-89
2023/10/08 11:12:47;;;;;;;4.28;1.55;;;;;;;-143.29;100.00;62188.47;5050743;28;20013;-90
2023/10/08 11:15:17;;;;;;;5.53;1.70;;;;;;;-143.29;100.00;62188.47;5052290;28;20396;-89
2023/10/08 11:17:44;;;;;;;4.25;1.55;;;;;;;-143.29;100.00;62188.47;5051167;28;20040;-90
2023/10/08 11:20:25;;;;;;;3.55;1.67;;;;;;;-143.29;100.00;62188.47;5051924;28;20037;-90
2023/10/08 11:22:53;;;;;;;5.00;1.40;;;;;;;-143.29;100.00;62188.47;5034250;28;20036;-90
2023/10/08 11:25:23;;;;;;;3.95;2.20;;;;;;;-143.29;100.00;62188.47;5034215;28;20025;-90
2023/10/08 11:27:58;;;;;;;3.67;1.60;;;;;;;-143.29;100.00;62188.47;5052089;28;20025;-90
2023/10/08 11:30:24;;;;;;;4.78;1.88;;;;;;;-143.29;100.00;62188.47;5051885;28;20025;-90
2023/10/08 11:32:50;;;;;;;5.32;2.10;;;;;;;-143.29;100.00;62188.47;5050875;28;20103;-90
2023/10/08 11:35:16;;;;;;;3.10;1.90;;;;;;;-143.29;100.00;62188.47;5034247;28;20489;-90
2023/10/08 11:37:48;;;;;;;5.47;2.30;;;;;;;-143.29;100.00;62188.47;5051814;28;20067;-90
2023/10/08 11:41:13;;;;;;;7.47;2.20;;;;;;;-143.29;100.00;62188.47;5051857;28;20021;-90
2023/10/08 11:43:15;;;;;;;4.00;1.90;;;;;;;-143.29;100.00;62188.47;5044019;28;20040;-90
2023/10/08 11:45:47;;;;;;;5.63;2.10;;;;;;;-143.29;100.00;62188.47;5051842;28;20040;-90
2023/10/08 11:48:13;;;;;;;5.13;2.13;;;;;;;-143.29;100.00;62188.47;5050759;28;20033;-90
2023/10/08 11:50:40;;;;;;;2.75;1.67;;;;;;;-143.29;100.00;62188.47;5051756;28;20035;-90
2023/10/08 11:53:05;;;;;;;7.65;1.92;;;;;;;-143.29;100.00;62188.47;5051656;28;20094;-90
2023/10/08 11:55:36;;;;;;;3.15;1.80;;;;;;;-143.29;100.00;62188.47;5051509;28;20410;-90
2023/10/08 11:58:09;;;;;;;5.90;2.60;;;;;;;-143.29;100.00;62188.47;5051567;28;20051;-89
2023/10/08 12:00:45;;;;;;;5.55;2.10;;;;;;;-143.29;100.00;62188.47;5051458;28;20756;-90
2023/10/08 12:03:11;;;;;;;5.80;1.90;;;;;;;-143.29;100.00;62188.47;5051109;28;20041;-90
2023/10/08 12:05:43;;;;;;;6.47;2.17;;;;;;;-143.29;100.00;62188.47;5050610;28;20025;-90
2023/10/08 12:08:09;;;;;;;3.35;1.73;;;;;;;-143.29;100.00;62188.47;5051599;28;20021;-90
2023/10/08 12:10:34;;;;;;;5.25;1.70;;;;;;;-143.29;100.00;62188.47;5054781;28;20071;-90
2023/10/08 12:12:59;;;;;;;7.95;2.28;;;;;;;-143.29;100.00;62188.47;5055588;28;20041;-90
2023/10/08 12:15:34;;;;;;;7.53;2.38;;;;;;;-143.29;100.00;62188.47;5055878;28;20029;-90
2023/10/08 12:18:11;;;;;;;2.90;1.85;;;;;;;-143.29;100.00;62188.47;5036520;28;20021;-90
2023/10/08 12:20:43;;;;;;;4.50;2.20;;;;;;;-143.29;100.00;62188.47;5054485;28;20523;-90
2023/10/08 12:23:24;;;;;;;4.93;2.13;;;;;;;-143.29;100.00;62188.47;5037445;28;20071;-90
2023/10/08 12:25:55;;;;;;;6.10;2.50;;;;;;;-143.29;100.00;62188.47;5055576;28;20025;-90
2023/10/08 12:28:24;;;;;;;6.38;2.47;;;;;;;-143.29;100.00;62188.47;5055548;28;20386;-90
2023/10/08 12:30:52;;;;;;;5.30;2.10;;;;;;;-143.29;100.00;62188.47;5069742;28;20474;-90